createdAt,value
2022-08-17T00:02:25.533Z,12.48
2022-08-17T00:07:28.816Z,12.15
2022-08-17T00:12:43.339Z,9.93
2022-08-17T00:17:49.378Z,12.25
2022-08-17T00:23:01.510Z,8.32
2022-08-17T00:28:04.188Z,13.80
2022-08-17T00:33:16.684Z,8.48
2022-08-17T00:38:19.422Z,8.45
2022-08-17T00:43:44.167Z,14.43
2022-08-17T00:48:46.352Z,8.32
2022-08-17T00:53:54.025Z,10.45
2022-08-17T00:58:56.291Z,11.63
2022-08-17T01:04:00.025Z,10.40
2022-08-17T01:09:03.792Z,12.75
2022-08-17T01:14:05.618Z,12.18
2022-08-17T01:19:23.390Z,12.48
2022-08-17T01:24:25.168Z,9.30
2022-08-17T01:29:30.747Z,10.38
2022-08-17T01:34:42.460Z,12.02
2022-08-17T01:39:48.752Z,14.35
2022-08-17T01:55:34.878Z,9.90
2022-08-17T02:00:46.895Z,11.40
2022-08-17T02:06:01.489Z,10.10
2022-08-17T02:11:11.297Z,10.13
2022-08-17T02:16:14.184Z,13.70
2022-08-17T02:21:15.938Z,11.57
2022-08-17T02:26:25.846Z,10.82
2022-08-17T02:31:28.443Z,10.75
2022-08-17T02:36:30.121Z,9.60
2022-08-17T02:41:32.239Z,11.93
2022-08-17T02:46:34.302Z,9.80
2022-08-17T02:51:35.978Z,11.48
2022-08-17T02:56:37.675Z,10.43
2022-08-17T03:01:39.475Z,15.65
2022-08-17T03:06:41.623Z,13.40
2022-08-17T03:11:43.492Z,12.23
2022-08-17T03:16:45.385Z,23.52
2022-08-17T03:21:47.068Z,17.15
2022-08-17T03:26:57.533Z,14.73
2022-08-17T03:31:59.680Z,15.77
2022-08-17T03:37:01.795Z,14.40
2022-08-17T03:42:09.041Z,18.10
2022-08-17T03:47:49.418Z,15.32
2022-08-17T03:53:09.569Z,20.45
2022-08-17T03:58:11.704Z,18.63
2022-08-17T04:03:14.177Z,20.23
2022-08-17T04:08:16.450Z,24.65
2022-08-17T04:13:24.900Z,18.45
2022-08-17T04:18:27.976Z,18.77
2022-08-17T04:23:33.869Z,14.73
2022-08-17T04:28:36.178Z,18.90
2022-08-17T04:33:38.337Z,16.75
2022-08-17T04:38:42.441Z,18.10
2022-08-17T04:43:45.897Z,16.60
2022-08-17T04:48:50.490Z,20.33
2022-08-17T04:53:56.783Z,18.02
2022-08-17T04:59:05.843Z,29.58
2022-08-17T05:09:34.013Z,26.83
2022-08-17T05:14:36.154Z,19.10
2022-08-17T05:19:38.397Z,26.00
2022-08-17T05:24:43.765Z,21.38
2022-08-17T05:29:58.128Z,32.72
2022-08-17T05:35:01.182Z,21.48
2022-08-17T05:40:15.697Z,22.58
2022-08-17T05:45:54.533Z,16.52
2022-08-17T05:51:22.685Z,17.40
2022-08-17T05:57:03.443Z,19.70
2022-08-17T06:02:50.680Z,20.48
2022-08-17T06:08:02.684Z,24.58
2022-08-17T06:13:31.481Z,31.42
2022-08-17T06:18:53.404Z,34.55
2022-08-17T06:24:05.582Z,21.70
2022-08-17T06:29:23.493Z,23.55
2022-08-17T06:34:27.069Z,19.60
2022-08-17T06:39:42.943Z,22.05
2022-08-17T06:45:03.262Z,19.73
2022-08-17T06:50:18.769Z,15.02
2022-08-17T06:55:26.420Z,15.35
2022-08-17T07:00:35.849Z,23.05
2022-08-17T07:05:46.488Z,18.75
2022-08-17T07:11:03.846Z,12.18
2022-08-17T07:16:15.889Z,13.30
2022-08-17T07:21:41.933Z,10.98
2022-08-17T07:26:44.012Z,9.73
2022-08-17T07:31:46.106Z,10.85
2022-08-17T07:37:01.409Z,10.40
2022-08-17T07:42:05.203Z,9.32
2022-08-17T07:47:35.471Z,9.20
2022-08-17T07:52:48.554Z,10.48
2022-08-17T07:57:58.513Z,9.63
2022-08-17T08:03:11.262Z,12.52
2022-08-17T08:08:54.751Z,8.40
2022-08-17T08:14:21.088Z,6.72
2022-08-17T08:19:31.954Z,5.63
2022-08-17T08:24:45.316Z,6.78
2022-08-17T08:29:57.655Z,5.22
2022-08-17T08:35:11.373Z,5.35
2022-08-17T08:41:14.567Z,6.03
2022-08-17T08:46:36.410Z,6.70
2022-08-17T08:51:49.449Z,4.65
2022-08-17T08:57:23.240Z,5.65
2022-08-17T09:02:49.458Z,6.95
2022-08-17T09:07:54.716Z,5.10
2022-08-17T09:13:22.581Z,6.53
2022-08-17T09:19:00.699Z,7.22
2022-08-17T09:24:20.830Z,6.53
2022-08-17T09:34:40.270Z,6.22
2022-08-17T09:40:14.019Z,4.55
2022-08-17T09:45:37.762Z,5.70
2022-08-17T09:51:14.460Z,3.80
2022-08-17T09:56:28.347Z,5.65
2022-08-17T10:01:38.408Z,4.10
2022-08-17T10:07:13.775Z,2.92
2022-08-17T10:12:53.158Z,3.08
2022-08-17T10:18:08.806Z,5.95
2022-08-17T10:23:47.771Z,6.82
2022-08-17T10:29:09.967Z,3.47
2022-08-17T10:34:56.268Z,4.25
2022-08-17T10:40:26.518Z,12.60
2022-08-17T10:45:45.022Z,3.90
2022-08-17T10:51:01.934Z,5.95
2022-08-17T10:56:13.011Z,6.70
2022-08-17T11:01:15.379Z,4.22
2022-08-17T11:06:32.106Z,4.15
2022-08-17T11:11:53.455Z,3.67
2022-08-17T11:17:19.809Z,4.65
2022-08-17T11:22:47.680Z,4.55
2022-08-17T11:28:04.033Z,5.97
2022-08-17T11:33:38.223Z,5.82
2022-08-17T11:39:00.441Z,3.75
2022-08-17T11:44:27.615Z,5.30
2022-08-17T11:50:02.269Z,4.38
2022-08-17T11:55:31.745Z,5.57
2022-08-17T12:01:03.052Z,5.57
2022-08-17T12:06:30.403Z,3.85
2022-08-17T12:12:12.946Z,4.10
2022-08-17T12:17:41.525Z,8.85
2022-08-17T12:22:47.989Z,5.32
2022-08-17T12:28:06.738Z,5.63
2022-08-17T12:33:13.642Z,4.20
2022-08-17T12:38:33.342Z,4.25
2022-08-17T12:43:35.339Z,3.63
2022-08-17T12:48:37.103Z,4.55
2022-08-17T12:53:40.805Z,4.40
2022-08-17T12:58:55.575Z,2.95
2022-08-17T13:04:00.120Z,5.70
2022-08-17T13:09:14.133Z,5.00
2022-08-17T13:14:18.620Z,6.22
2022-08-17T13:19:39.776Z,3.70
2022-08-17T13:24:53.324Z,3.75
2022-08-17T13:30:07.191Z,5.47
2022-08-17T13:35:40.993Z,7.85
2022-08-17T13:40:52.993Z,3.53
2022-08-17T13:46:11.597Z,4.22
2022-08-17T13:51:19.881Z,4.47
2022-08-17T13:56:38.668Z,5.95
2022-08-17T14:01:53.358Z,3.35
2022-08-17T14:07:04.308Z,3.10
2022-08-17T14:17:11.875Z,4.88
2022-08-17T14:22:30.512Z,3.22
2022-08-17T14:27:41.896Z,3.42
2022-08-17T14:32:54.703Z,3.03
2022-08-17T14:37:56.736Z,8.82
2022-08-17T14:42:58.810Z,6.82
2022-08-17T14:48:03.993Z,6.20
2022-08-17T14:53:08.265Z,10.82
2022-08-17T14:58:10.284Z,3.85
2022-08-17T15:03:12.261Z,7.93
2022-08-17T15:08:14.782Z,4.28
2022-08-17T15:13:21.098Z,4.38
2022-08-17T15:18:23.612Z,4.18
2022-08-17T15:23:26.783Z,3.55
2022-08-17T15:28:28.882Z,5.32
2022-08-17T15:33:30.906Z,4.53
2022-08-17T15:38:36.778Z,5.53
2022-08-17T15:43:38.518Z,3.45
2022-08-17T15:48:42.628Z,6.53
2022-08-17T15:53:50.300Z,5.18
2022-08-17T15:58:53.821Z,8.50
2022-08-17T16:04:03.834Z,4.45
2022-08-17T16:09:07.567Z,6.60
2022-08-17T16:14:09.713Z,5.72
2022-08-17T16:19:15.439Z,3.22
2022-08-17T16:24:17.619Z,5.70
2022-08-17T16:29:19.749Z,3.17
2022-08-17T16:34:21.557Z,4.10
2022-08-17T16:39:29.687Z,5.43
2022-08-17T16:44:32.101Z,3.42
2022-08-17T16:49:37.130Z,5.75
2022-08-17T16:54:44.310Z,3.15
2022-08-17T16:59:51.085Z,4.30
2022-08-17T17:05:26.925Z,4.22
2022-08-17T17:10:36.031Z,6.72
2022-08-17T17:16:18.282Z,4.97
2022-08-17T17:21:26.724Z,3.97
2022-08-17T17:26:28.516Z,3.17
2022-08-17T17:31:42.840Z,5.28
2022-08-17T17:36:53.971Z,3.75
2022-08-17T17:41:59.586Z,3.45
2022-08-17T17:47:03.421Z,5.07
2022-08-17T17:52:14.364Z,4.22
2022-08-17T17:57:35.530Z,5.40
2022-08-17T18:02:58.750Z,15.00
2022-08-17T18:08:34.406Z,6.53
2022-08-17T18:13:55.323Z,4.18
2022-08-17T18:18:57.720Z,5.38
2022-08-17T18:24:01.974Z,7.82
2022-08-17T18:29:15.119Z,4.88
2022-08-17T18:34:45.758Z,5.47
2022-08-17T18:39:46.986Z,5.55
2022-08-17T18:44:54.331Z,28.08
2022-08-17T18:50:18.386Z,8.25
2022-08-17T18:55:29.974Z,11.20
2022-08-17T19:00:38.354Z,7.45
2022-08-17T19:05:46.294Z,8.07
2022-08-17T19:10:58.465Z,15.07
2022-08-17T19:16:15.715Z,39.15
2022-08-17T19:21:44.573Z,14.98
2022-08-17T19:27:25.724Z,9.32
2022-08-17T19:32:36.762Z,7.88
2022-08-17T19:37:56.558Z,10.02
2022-08-17T19:43:13.202Z,5.93
2022-08-17T19:48:35.604Z,4.20
2022-08-17T19:54:06.904Z,7.45
2022-08-17T19:59:17.588Z,5.53
2022-08-17T20:04:42.115Z,5.95
2022-08-17T20:09:54.042Z,8.15
2022-08-17T20:15:11.688Z,5.15
2022-08-17T20:20:51.919Z,5.22
2022-08-17T20:26:19.733Z,13.45
2022-08-17T20:31:45.629Z,10.23
2022-08-17T20:37:25.940Z,10.00
2022-08-17T20:42:30.099Z,12.65
2022-08-17T20:48:00.859Z,17.10
2022-08-17T20:53:09.037Z,6.00
2022-08-17T20:58:16.809Z,6.75
2022-08-17T21:03:24.129Z,13.50
2022-08-17T21:08:35.648Z,8.63
2022-08-17T21:14:14.983Z,8.80
2022-08-17T21:20:00.652Z,12.10
2022-08-17T21:25:48.293Z,13.50
2022-08-17T21:30:55.581Z,8.23
2022-08-17T21:36:12.917Z,14.43
2022-08-17T21:41:44.257Z,6.90
2022-08-17T21:46:49.345Z,8.95
2022-08-17T21:51:56.396Z,8.95
2022-08-17T21:57:01.478Z,13.63
2022-08-17T22:02:05.657Z,13.93
2022-08-17T22:07:13.101Z,8.57
2022-08-17T22:12:21.069Z,9.90
2022-08-17T22:17:25.197Z,7.60
2022-08-17T22:22:34.993Z,12.55
2022-08-17T22:27:48.533Z,9.35
2022-08-17T22:32:50.338Z,6.70
2022-08-17T22:37:52.299Z,6.35
2022-08-17T22:42:54.481Z,10.65
2022-08-17T22:47:58.628Z,7.07
2022-08-17T22:53:33.055Z,10.45
2022-08-17T22:59:00.029Z,7.53
2022-08-17T23:04:11.562Z,5.22
2022-08-17T23:09:13.485Z,5.68
2022-08-17T23:14:16.060Z,7.18
2022-08-17T23:19:20.651Z,9.90
2022-08-17T23:24:31.166Z,7.25
2022-08-17T23:29:33.928Z,16.63
2022-08-17T23:34:37.496Z,9.25
2022-08-17T23:39:39.818Z,9.65
2022-08-17T23:44:43.656Z,9.07
2022-08-17T23:49:45.498Z,10.02
2022-08-17T23:54:48.157Z,12.02
2022-08-17T23:59:49.869Z,10.98
